Aeroporto :
LOGIN :

Iscrizione | Disclaimer

   EN    FR    IT 

 










Sommario :    VFR   VFR Marginale   IFR   IFR Intensivo   IFR Molto Intensivo
Visibilità : 
Base nubi : 
>= 8 km
>= 3000ft
5 / 8 km
1000 / 3000 ft
1500m / 5 km
500 / 1000 ft
800 / 1500m
200 / 500 ft
< 800m
< 200 ft
Simboli :   Temporali  Nebbia  Neve Forte  Precipitazioni Forti  Vento > 20 kt
SIGMETs :   Varie  Temporali  Ghiacco  Turbolenza  Onda orograficha  Ceneri Vulcaniche






- Altitudine del aeroporto : 1017 ft


LFSL - Brive Souillac

ULTIMO METAR :
  • 280430Z AUTO 00000KT CAVOK 07/06 Q1023 NOSIG

METARs OBSOLETI :
  • 280400Z AUTO VRB02KT CAVOK 08/06 Q1022 NOSIG
  • 280330Z AUTO 30003KT CAVOK 08/07 Q1023 NOSIG
  • 280300Z AUTO 29003KT CAVOK 09/07 Q1023 NOSIG
  • 280230Z AUTO 28002KT CAVOK 09/07 Q1023
  • 280200Z AUTO 30003KT 9999 FEW042 10/07 Q1023
  • 280130Z AUTO 30005KT 9999 BKN042 OVC100 11/08 Q1023
  • 280100Z AUTO 29005KT 9999 FEW043 OVC100 11/08 Q1023
  • 280030Z AUTO 31006KT CAVOK 10/08 Q1023
  • 280000Z AUTO 31004KT CAVOK 10/07 Q1023

TAF TAF LFSL
Valido dal 28 a 03 ore il 28 a 12 ore UTC


280200Z 2803/2812 VRB03KT CAVOK
BECMG 2808/2810 31005KT



MetMap, La meteo Aeronautica in un colpo d'occhio ! - Copyright ORBIFLY Dicembre 2007 - Disclaimer

ORBIFLY MET'MAP TEAM :

Programmazione e sviluppo : Alexandra Zaïnal
Concezione : Baudouin d'Aumeries
Supporto tecnico e logistico : Manuel Goepfert
Aiuto : Marc-Olivier Méhu
Aiuto per la traduzione : Arnaldo La Scala




FONTI E CREDITI :

   NOAA